Time;durP1;ratioP1;P1;durP2;ratioP2;P2;SDS_P1;SDS_P2;PMS_P1;PMS_P2;Temp;Humidity;BMP_temperature;BMP_pressure;BME280_temperature;BME280_humidity;BME280_pressure;Samples;Min_cycle;Max_cycle;Signal;HPM_P1;HPM_P2
2022/12/02 00:03:43;;;;;;;40.00;14.53;;;;;;;4.73;100.00;100363.53;12192945;19;20011;-84
2022/12/02 00:07:45;;;;;;;;;;;;;;;4.67;100.00;100356.13;12222506;19;20493;-84
2022/12/02 00:11:47;;;;;;;41.45;15.00;;;;;;;4.71;100.00;100343.78;12252668;19;19914;-82
2022/12/02 00:15:56;;;;;;;35.47;13.40;;;;;;;4.74;100.00;100344.25;12246750;19;19999;-82
2022/12/02 00:19:58;;;;;;;36.63;14.65;;;;;;;4.74;100.00;100337.94;12250149;19;20014;-82
2022/12/02 00:23:59;;;;;;;44.13;15.95;;;;;;;4.68;100.00;100342.31;12226727;19;20060;-83
2022/12/02 00:28:01;;;;;;;38.95;14.50;;;;;;;4.66;100.00;100332.63;12187824;19;20047;-84
2022/12/02 00:32:04;;;;;;;30.90;10.95;;;;;;;4.67;100.00;100334.28;12209737;19;20402;-84
2022/12/02 00:36:06;;;;;;;39.65;14.88;;;;;;;4.63;100.00;100338.47;12212190;19;20089;-83
2022/12/02 00:40:08;;;;;;;42.10;14.82;;;;;;;4.63;100.00;100333.00;12186611;19;20054;-84
2022/12/02 00:48:30;;;;;;;35.80;13.57;;;;;;;4.61;100.00;100329.63;12190077;19;20022;-83
2022/12/02 00:52:32;;;;;;;36.67;14.00;;;;;;;4.57;100.00;100323.72;12209265;19;20010;-84
2022/12/02 00:56:34;;;;;;;35.25;14.60;;;;;;;4.56;100.00;100327.50;12210377;19;20352;-83
2022/12/02 01:00:36;;;;;;;37.60;14.30;;;;;;;4.54;100.00;100324.97;12188505;19;20024;-84
2022/12/02 01:04:37;;;;;;;35.90;13.93;;;;;;;4.48;100.00;100314.84;12209778;19;20288;-83
2022/12/02 01:08:39;;;;;;;37.70;15.60;;;;;;;4.46;100.00;100318.81;12209517;19;20049;-82
2022/12/02 01:12:41;;;;;;;35.58;13.73;;;;;;;4.45;100.00;100309.78;12186589;19;20034;-83
2022/12/02 01:16:43;;;;;;;40.65;13.90;;;;;;;4.46;100.00;100311.50;12210625;19;20024;-81
2022/12/02 01:20:45;;;;;;;38.70;14.13;;;;;;;4.50;100.00;100306.47;12206360;19;20369;-84
2022/12/02 01:24:46;;;;;;;40.17;15.00;;;;;;;4.54;100.00;100311.31;12181634;19;20391;-83
2022/12/02 01:28:48;;;;;;;33.92;12.80;;;;;;;4.63;100.00;100300.25;12198988;19;20009;-83
2022/12/02 01:32:50;;;;;;;33.63;14.07;;;;;;;4.72;100.00;100299.06;12198953;19;20035;-84
2022/12/02 01:36:53;;;;;;;37.85;15.45;;;;;;;4.78;100.00;100314.63;12181118;19;20010;-84
2022/12/02 01:40:54;;;;;;;30.75;12.70;;;;;;;4.79;100.00;100299.97;12200934;19;20007;-84
2022/12/02 01:44:56;;;;;;;33.97;13.60;;;;;;;4.81;100.00;100308.78;12199997;19;20006;-83
2022/12/02 01:48:58;;;;;;;40.10;15.02;;;;;;;4.84;100.00;100302.91;12181175;19;20035;-83
2022/12/02 01:53:00;;;;;;;37.28;13.43;;;;;;;4.84;100.00;100305.66;12200800;19;20329;-83
2022/12/02 01:57:05;;;;;;;38.70;15.23;;;;;;;4.82;100.00;100298.69;12195364;19;20002;-82
2022/12/02 02:01:29;;;;;;;35.97;13.60;;;;;;;4.81;100.00;100300.59;12179372;19;20043;-83
2022/12/02 02:05:33;;;;;;;41.72;14.48;;;;;;;4.80;100.00;100305.22;12213028;19;20011;-83
2022/12/02 02:09:34;;;;;;;34.38;13.32;;;;;;;4.81;100.00;100306.06;12184651;19;20629;-83
2022/12/02 02:13:36;;;;;;;36.90;13.90;;;;;;;4.82;100.00;100298.69;12215634;19;20007;-83
2022/12/02 02:17:38;;;;;;;34.88;13.20;;;;;;;4.72;100.00;100296.34;12216153;19;20006;-82
2022/12/02 02:21:46;;;;;;;36.72;14.70;;;;;;;4.72;100.00;100299.06;12194325;19;20516;-82
2022/12/02 02:25:53;;;;;;;40.60;15.07;;;;;;;4.69;100.00;100289.38;12209189;19;20006;-83
2022/12/02 02:29:59;;;;;;;37.20;13.15;;;;;;;4.72;100.00;100286.25;12202146;19;20010;-83
2022/12/02 02:34:01;;;;;;;38.60;15.10;;;;;;;4.71;100.00;100281.84;12183859;19;20019;-83
2022/12/02 02:38:06;;;;;;;40.40;14.52;;;;;;;4.71;100.00;100283.72;12201267;19;20006;-83
2022/12/02 02:42:08;;;;;;;35.50;13.38;;;;;;;4.68;100.00;100278.69;12204744;19;20318;-83
2022/12/02 02:46:10;;;;;;;35.58;14.70;;;;;;;4.63;100.00;100284.72;12179133;19;20346;-83
2022/12/02 02:50:15;;;;;;;36.45;14.10;;;;;;;4.59;100.00;100277.16;12202905;19;20006;-82
2022/12/02 02:54:17;;;;;;;35.00;14.45;;;;;;;4.53;100.00;100282.34;12205645;19;20012;-82
2022/12/02 02:58:21;;;;;;;37.55;13.90;;;;;;;4.52;100.00;100274.34;12184436;19;20002;-83
2022/12/02 03:02:26;;;;;;;38.50;14.07;;;;;;;4.55;100.00;100273.94;12201961;19;20018;-82
2022/12/02 03:06:31;;;;;;;35.63;12.98;;;;;;;4.50;100.00;100269.09;12180708;19;20154;-83
2022/12/02 03:10:34;;;;;;;40.15;14.68;;;;;;;4.52;100.00;100268.88;12203040;19;20010;-83
2022/12/02 03:14:35;;;;;;;45.10;15.53;;;;;;;4.55;100.00;100263.91;12205531;19;20038;-82
2022/12/02 03:18:39;;;;;;;35.45;13.75;;;;;;;4.52;100.00;100256.13;12185883;19;20006;-83
2022/12/02 03:22:41;;;;;;;36.88;14.18;;;;;;;4.42;100.00;100249.31;12209159;19;20353;-83
2022/12/02 03:26:43;;;;;;;32.88;13.95;;;;;;;4.38;100.00;100248.88;12207873;19;20334;-83
2022/12/02 03:30:45;;;;;;;38.50;13.27;;;;;;;4.43;100.00;100246.41;12182305;19;20006;-82
2022/12/02 03:34:47;;;;;;;33.63;13.73;;;;;;;4.51;100.00;100243.50;12207888;19;20015;-83
2022/12/02 03:38:49;;;;;;;32.07;13.20;;;;;;;4.51;100.00;100242.66;12208698;19;20435;-83
2022/12/02 03:42:51;;;;;;;40.42;14.60;;;;;;;4.51;100.00;100240.75;12185804;19;20042;-83
2022/12/02 03:46:53;;;;;;;33.60;13.97;;;;;;;4.48;100.00;100243.06;12207319;19;20377;-83
2022/12/02 03:50:55;;;;;;;39.22;15.48;;;;;;;4.48;100.00;100245.78;12211557;19;20083;-83
2022/12/02 03:54:57;;;;;;;34.33;13.55;;;;;;;4.53;100.00;100246.88;12182150;19;19999;-83
2022/12/02 03:58:59;;;;;;;39.90;14.40;;;;;;;4.52;100.00;100245.19;12206396;19;20043;-83
2022/12/02 04:03:00;;;;;;;39.92;15.38;;;;;;;4.51;100.00;100238.03;12213299;19;20010;-83
2022/12/02 04:07:05;;;;;;;40.20;13.73;;;;;;;4.54;100.00;100236.78;12194339;19;20513;-84
2022/12/02 04:11:06;;;;;;;33.88;13.98;;;;;;;4.49;100.00;100233.81;12213408;19;20010;-83
2022/12/02 04:15:09;;;;;;;39.47;14.40;;;;;;;4.50;100.00;100225.44;12212063;19;20031;-83
2022/12/02 04:19:12;;;;;;;43.85;15.55;;;;;;;4.40;100.00;100218.63;12191408;19;20032;-83
2022/12/02 04:23:13;;;;;;;38.63;14.23;;;;;;;4.35;100.00;100211.06;12210979;19;20064;-83
2022/12/02 04:27:15;;;;;;;40.67;15.93;;;;;;;4.33;100.00;100215.88;12214461;19;20021;-82
2022/12/02 04:31:17;;;;;;;39.88;14.60;;;;;;;4.36;100.00;100209.19;12189394;19;20015;-84
2022/12/02 04:35:19;;;;;;;48.72;16.45;;;;;;;4.36;100.00;100210.03;12211625;19;20647;-83
2022/12/02 04:39:20;;;;;;;40.00;14.93;;;;;;;4.33;100.00;100205.78;12181291;19;20023;-83
2022/12/02 04:43:22;;;;;;;42.20;14.38;;;;;;;4.37;100.00;100198.06;12201620;19;20010;-82
2022/12/02 04:47:24;;;;;;;41.53;14.10;;;;;;;4.32;100.00;100206.00;12204823;19;20015;-83
2022/12/02 04:51:25;;;;;;;44.33;16.13;;;;;;;4.32;100.00;100200.56;12184289;19;20460;-83
2022/12/02 04:55:27;;;;;;;38.33;13.25;;;;;;;4.34;100.00;100209.38;12216425;19;20039;-84
2022/12/02 04:59:31;;;;;;;45.90;15.83;;;;;;;4.28;100.00;100200.13;12253442;19;20007;-84
2022/12/02 05:03:37;;;;;;;40.60;15.65;;;;;;;4.29;100.00;100198.22;12240770;19;20110;-83
2022/12/02 05:07:38;;;;;;;38.13;14.35;;;;;;;4.29;100.00;100190.88;12231335;19;20009;-82
2022/12/02 05:11:40;;;;;;;40.45;14.63;;;;;;;4.29;100.00;100184.59;12260147;19;20007;-82
2022/12/02 05:15:42;;;;;;;35.45;14.88;;;;;;;4.29;100.00;100181.88;12211314;19;20045;-84
2022/12/02 05:19:43;;;;;;;42.20;14.15;;;;;;;4.27;100.00;100178.47;12210188;19;20014;-84
2022/12/02 05:23:45;;;;;;;40.78;15.15;;;;;;;4.28;100.00;100177.44;12207305;19;20015;-84
2022/12/02 05:27:47;;;;;;;41.22;14.88;;;;;;;4.32;100.00;100170.56;12184563;19;20014;-84
2022/12/02 05:31:48;;;;;;;41.28;13.48;;;;;;;4.34;100.00;100173.91;12208710;19;20050;-84
2022/12/02 05:35:50;;;;;;;41.58;13.40;;;;;;;4.35;100.00;100161.97;12209453;19;20067;-84
2022/12/02 05:39:52;;;;;;;34.78;14.07;;;;;;;4.33;100.00;100173.06;12185649;19;20080;-85
2022/12/02 05:43:56;;;;;;;39.72;15.05;;;;;;;4.39;100.00;100170.59;12207471;19;20048;-85
2022/12/02 05:47:58;;;;;;;40.22;13.98;;;;;;;4.42;100.00;100173.75;12204692;19;20013;-85
2022/12/02 05:52:01;;;;;;;39.28;13.70;;;;;;;4.39;100.00;100176.03;12183130;19;20023;-83
2022/12/02 05:56:09;;;;;;;37.55;13.73;;;;;;;4.41;100.00;100172.06;12190782;19;20007;-84
2022/12/02 06:00:21;;;;;;;35.30;13.40;;;;;;;4.39;100.00;100167.84;12196864;19;20007;-84
2022/12/02 06:04:31;;;;;;;37.80;13.18;;;;;;;4.42;100.00;100171.00;12174738;19;20010;-86
2022/12/02 06:08:38;;;;;;;36.97;13.02;;;;;;;4.41;100.00;100172.06;12198286;19;20023;-85
2022/12/02 06:12:40;;;;;;;34.35;12.95;;;;;;;4.43;100.00;100180.03;12183111;19;20071;-85
2022/12/02 06:16:56;;;;;;;40.65;13.55;;;;;;;4.48;100.00;100178.41;12209688;19;20011;-85
2022/12/02 06:21:15;;;;;;;33.75;13.45;;;;;;;4.59;100.00;100181.63;12212114;19;20006;-87
2022/12/02 06:25:26;;;;;;;35.65;13.52;;;;;;;4.57;100.00;100185.38;12188736;19;20010;-84
2022/12/02 06:29:30;;;;;;;34.75;12.50;;;;;;;4.61;100.00;100176.78;12211528;19;20507;-84
2022/12/02 06:33:35;;;;;;;33.10;12.32;;;;;;;4.57;100.00;100177.19;12169001;19;20022;-84
2022/12/02 06:37:37;;;;;;;29.10;12.68;;;;;;;4.49;100.00;100180.09;12208622;19;20038;-83
2022/12/02 06:41:39;;;;;;;36.92;13.52;;;;;;;4.43;100.00;100177.31;12207385;19;20002;-83
2022/12/02 06:45:41;;;;;;;32.17;13.02;;;;;;;4.38;100.00;100172.47;12180575;19;20000;-84
2022/12/02 06:49:43;;;;;;;34.42;13.18;;;;;;;4.35;100.00;100178.34;12218439;19;20583;-84
2022/12/02 06:53:46;;;;;;;36.35;12.95;;;;;;;4.38;100.00;100171.63;12219857;19;20029;-85
2022/12/02 06:57:50;;;;;;;35.97;12.95;;;;;;;4.42;100.00;100170.19;12196382;19;20102;-83
2022/12/02 07:01:55;;;;;;;32.88;12.10;;;;;;;4.50;100.00;100178.22;12218947;19;21383;-83
2022/12/02 07:06:12;;;;;;;29.83;12.45;;;;;;;4.57;100.00;100184.53;12217089;19;20070;-85
2022/12/02 07:10:26;;;;;;;42.33;15.30;;;;;;;4.52;100.00;100179.69;12196492;19;20032;-82
2022/12/02 07:14:32;;;;;;;30.52;12.13;;;;;;;4.47;100.00;100182.19;12220530;19;20377;-84
2022/12/02 07:18:34;;;;;;;49.78;17.38;;;;;;;4.44;100.00;100181.75;12199118;19;20018;-82
2022/12/02 07:22:40;;;;;;;54.10;18.30;;;;;;;4.45;100.00;100181.53;12218719;19;20479;-83
2022/12/02 07:26:46;;;;;;;38.50;16.45;;;;;;;4.42;100.00;100181.09;12211106;19;20002;-84
2022/12/02 07:30:56;;;;;;;39.65;15.43;;;;;;;4.46;100.00;100174.19;12193641;19;20006;-84
2022/12/02 07:34:58;;;;;;;30.65;13.32;;;;;;;4.56;100.00;100174.69;12215362;19;20014;-83
2022/12/02 07:38:59;;;;;;;28.80;12.57;;;;;;;4.43;100.00;100169.13;12210291;19;20043;-83
2022/12/02 07:43:12;;;;;;;35.08;16.73;;;;;;;4.38;100.00;100164.28;12185318;19;20513;-84
2022/12/02 07:47:14;;;;;;;33.85;12.85;;;;;;;4.45;100.00;100167.88;12206719;19;20030;-83
2022/12/02 07:51:15;;;;;;;28.55;12.48;;;;;;;4.51;100.00;100167.06;12208891;19;20018;-84
2022/12/02 07:55:18;;;;;;;28.48;11.65;;;;;;;4.53;100.00;100162.28;12187475;19;20014;-82
2022/12/02 07:59:26;;;;;;;32.83;12.00;;;;;;;4.57;100.00;100166.28;12203256;19;20010;-83
2022/12/02 08:03:28;;;;;;;24.58;10.82;;;;;;;4.64;100.00;100165.44;12189122;19;20003;-83
2022/12/02 08:07:30;;;;;;;36.58;15.38;;;;;;;4.61;100.00;100160.41;12202392;19;20432;-83
2022/12/02 08:11:31;;;;;;;29.65;11.70;;;;;;;4.59;100.00;100159.78;12208423;19;20011;-82
2022/12/02 08:15:33;;;;;;;26.75;11.18;;;;;;;4.55;100.00;100162.91;12184150;19;20410;-83
2022/12/02 08:19:34;;;;;;;29.65;11.80;;;;;;;4.53;100.00;100164.16;12206767;19;20023;-83
2022/12/02 08:23:36;;;;;;;31.48;13.35;;;;;;;4.56;100.00;100159.13;12209953;19;20006;-83
2022/12/02 08:27:39;;;;;;;29.35;12.10;;;;;;;4.63;100.00;100163.78;12186995;19;20007;-82
2022/12/02 08:31:45;;;;;;;27.42;11.27;;;;;;;4.66;100.00;100163.38;12206144;19;20009;-83
2022/12/02 08:35:47;;;;;;;29.33;11.80;;;;;;;4.68;100.00;100164.03;12208935;19;20027;-82
2022/12/02 08:39:56;;;;;;;31.58;10.80;;;;;;;4.67;100.00;100154.13;12184803;19;20079;-84
2022/12/02 08:43:58;;;;;;;25.67;10.30;;;;;;;4.57;100.00;100169.00;12199400;19;20006;-83
2022/12/02 08:48:00;;;;;;;27.50;10.33;;;;;;;4.51;100.00;100161.63;12202477;19;20032;-84
2022/12/02 08:52:02;;;;;;;24.85;11.30;;;;;;;4.43;100.00;100161.81;12190348;19;20006;-83
2022/12/02 08:56:06;;;;;;;23.65;10.57;;;;;;;4.43;100.00;100159.09;12206397;19;20002;-82
2022/12/02 09:00:09;;;;;;;23.80;9.20;;;;;;;4.44;100.00;100159.91;12210733;19;20032;-83
2022/12/02 09:04:11;;;;;;;22.90;9.48;;;;;;;4.38;100.00;100149.81;12185004;19;20074;-82
2022/12/02 09:08:13;;;;;;;25.23;9.25;;;;;;;4.41;100.00;100160.31;12212086;19;20010;-82
2022/12/02 09:12:15;;;;;;;20.60;9.05;;;;;;;4.53;100.00;100162.28;12215785;19;20401;-82
2022/12/02 09:16:16;;;;;;;25.73;11.73;;;;;;;4.58;100.00;100167.13;12197536;19;20009;-82
2022/12/02 09:20:18;;;;;;;20.23;9.48;;;;;;;4.53;100.00;100165.00;12215137;19;20359;-83
2022/12/02 09:24:20;;;;;;;23.30;9.80;;;;;;;4.63;100.00;100161.88;12213506;19;20002;-84
2022/12/02 09:28:22;;;;;;;21.25;9.50;;;;;;;4.76;100.00;100166.59;12213423;19;20021;-83
2022/12/02 09:32:38;;;;;;;24.67;10.10;;;;;;;4.89;100.00;100163.06;12213170;19;20014;-82
2022/12/02 09:36:40;;;;;;;23.05;10.05;;;;;;;4.82;100.00;100157.59;12189210;19;20033;-84
2022/12/02 09:40:41;;;;;;;22.30;10.63;;;;;;;4.87;100.00;100159.69;12205221;19;20011;-82
2022/12/02 09:44:45;;;;;;;20.58;9.45;;;;;;;4.94;100.00;100155.09;12206221;19;20006;-83
2022/12/02 09:48:47;;;;;;;20.45;8.82;;;;;;;4.92;100.00;100154.47;12185858;19;20350;-84
2022/12/02 09:52:49;;;;;;;19.05;8.52;;;;;;;4.97;100.00;100154.69;12210317;19;20006;-83
2022/12/02 09:56:51;;;;;;;17.38;8.43;;;;;;;4.95;100.00;100157.63;12207750;19;20338;-83
2022/12/02 10:00:53;;;;;;;20.98;8.75;;;;;;;4.86;100.00;100150.66;12187489;19;20385;-84
2022/12/02 10:05:10;;;;;;;18.13;8.00;;;;;;;4.94;100.00;100150.47;12210399;19;20054;-83
2022/12/02 10:09:23;;;;;;;19.77;8.25;;;;;;;5.02;100.00;100153.00;12239324;19;20010;-81
2022/12/02 10:13:26;;;;;;;19.27;8.20;;;;;;;5.05;100.00;100153.66;12246704;19;20003;-81
2022/12/02 10:17:28;;;;;;;;;;;;;;;5.00;100.00;100146.94;12215068;19;20002;-84
2022/12/02 10:21:30;;;;;;;16.92;7.18;;;;;;;4.98;100.00;100140.81;12190743;19;19911;-83
2022/12/02 10:25:32;;;;;;;19.80;7.68;;;;;;;5.10;100.00;100142.97;12220926;19;20013;-85
2022/12/02 10:29:34;;;;;;;19.67;8.13;;;;;;;5.11;100.00;100129.09;12218235;19;20006;-84
2022/12/02 10:33:39;;;;;;;15.98;8.38;;;;;;;5.16;100.00;100136.66;12199684;19;20118;-85
2022/12/02 10:37:43;;;;;;;36.17;16.13;;;;;;;5.04;100.00;100125.50;12217051;19;20472;-84
2022/12/02 10:41:45;;;;;;;17.65;8.48;;;;;;;5.03;100.00;100124.66;12214128;19;20011;-84
2022/12/02 10:45:56;;;;;;;23.63;12.77;;;;;;;5.08;100.00;100125.94;12188734;19;20010;-85
2022/12/02 10:49:58;;;;;;;23.88;11.50;;;;;;;5.12;100.00;100128.06;12216392;19;20010;-84
2022/12/02 10:54:00;;;;;;;19.27;9.45;;;;;;;5.22;100.00;100127.66;12211845;19;20447;-82
2022/12/02 10:58:02;;;;;;;28.88;11.05;;;;;;;5.26;100.00;100115.25;12194429;19;20508;-84
2022/12/02 11:02:17;;;;;;;37.35;13.20;;;;;;;5.18;100.00;100107.25;12222480;19;20540;-83
2022/12/02 11:06:20;;;;;;;41.95;14.15;;;;;;;5.18;100.00;100110.84;12219799;19;20013;-83
2022/12/02 11:10:25;;;;;;;15.88;6.85;;;;;;;5.15;100.00;100103.06;12218406;19;20443;-80
2022/12/02 11:14:39;;;;;;;18.73;8.38;;;;;;;5.03;100.00;100096.53;12270048;19;20014;-81
2022/12/02 11:18:50;;;;;;;17.98;8.57;;;;;;;4.76;100.00;100099.19;12218166;19;19999;-85
2022/12/02 11:22:58;;;;;;;15.80;7.55;;;;;;;4.69;100.00;100086.53;12212005;19;20026;-84
2022/12/02 11:26:59;;;;;;;15.60;7.65;;;;;;;4.56;100.00;100093.63;12211444;19;20006;-84
2022/12/02 11:31:09;;;;;;;18.02;7.85;;;;;;;4.53;100.00;100083.13;12185937;19;20006;-83
2022/12/02 11:35:15;;;;;;;15.30;8.50;;;;;;;4.46;100.00;100090.47;12195805;19;21224;-82
2022/12/02 11:39:40;;;;;;;19.58;9.57;;;;;;;4.43;100.00;100076.34;12194700;19;20011;-82
2022/12/02 11:43:44;;;;;;;19.45;9.95;;;;;;;4.46;100.00;100079.53;12202556;19;20120;-82
2022/12/02 11:47:51;;;;;;;18.17;8.70;;;;;;;4.52;100.00;100069.66;12191164;19;20066;-82
2022/12/02 11:52:12;;;;;;;17.80;8.02;;;;;;;4.58;100.00;100066.16;12173726;19;20007;-82
2022/12/02 11:56:16;;;;;;;17.95;8.13;;;;;;;4.68;100.00;100068.47;12197225;19;20011;-82
2022/12/02 12:00:22;;;;;;;16.45;7.93;;;;;;;4.86;100.00;100055.09;12199988;19;20057;-83
2022/12/02 12:04:28;;;;;;;13.63;6.93;;;;;;;4.93;100.00;100055.94;12170689;19;19998;-82
2022/12/02 12:08:30;;;;;;;13.27;6.93;;;;;;;4.91;100.00;100057.22;12193449;19;20006;-82
2022/12/02 12:12:31;;;;;;;21.15;8.50;;;;;;;4.87;100.00;100053.19;12170290;19;20007;-83
2022/12/02 12:16:37;;;;;;;16.20;7.43;;;;;;;4.92;100.00;100045.22;12196656;19;20010;-82
2022/12/02 12:20:40;;;;;;;17.50;7.78;;;;;;;4.90;100.00;100039.97;12199334;19;20382;-82
2022/12/02 12:24:45;;;;;;;18.35;8.00;;;;;;;4.78;100.00;100042.47;12172629;19;20472;-82
2022/12/02 12:28:46;;;;;;;19.13;7.70;;;;;;;4.73;100.00;100035.94;12048016;19;2869057;-83
2022/12/02 12:32:48;;;;;;;17.00;7.68;;;;;;;4.73;100.00;100033.19;12198351;19;20027;-83
2022/12/02 12:36:50;;;;;;;55.85;22.48;;;;;;;4.67;100.00;100021.25;12179403;19;20007;-83
2022/12/02 12:40:51;;;;;;;24.55;12.38;;;;;;;4.69;100.00;100021.03;12206774;19;20222;-83
2022/12/02 12:44:53;;;;;;;18.88;8.88;;;;;;;4.65;100.00;100020.59;12201341;19;20003;-83
2022/12/02 12:48:55;;;;;;;20.85;9.18;;;;;;;4.62;100.00;100018.28;12188290;19;20011;-83
2022/12/02 12:52:57;;;;;;;24.00;10.70;;;;;;;4.62;100.00;100020.19;12208281;19;20108;-83
2022/12/02 12:56:59;;;;;;;19.38;9.75;;;;;;;4.65;100.00;100017.03;12200412;19;20798;-84
2022/12/02 13:01:01;;;;;;;18.92;8.65;;;;;;;4.58;100.00;100008.84;12175840;19;19999;-83
2022/12/02 13:05:06;;;;;;;16.55;8.10;;;;;;;4.63;100.00;100010.94;12194483;19;20018;-83
2022/12/02 13:09:09;;;;;;;19.17;8.40;;;;;;;4.60;100.00;100006.72;12193589;19;20006;-83
2022/12/02 13:13:11;;;;;;;18.33;8.27;;;;;;;4.59;100.00;100013.25;12173805;19;20263;-83
2022/12/02 13:17:12;;;;;;;19.30;8.45;;;;;;;4.53;100.00;100009.44;12196851;19;20038;-82
2022/12/02 13:21:14;;;;;;;17.50;8.70;;;;;;;4.51;100.00;100006.06;12197138;19;20023;-82
2022/12/02 13:25:16;;;;;;;15.63;7.68;;;;;;;4.48;100.00;100013.81;12178303;19;20006;-83
2022/12/02 13:29:18;;;;;;;21.57;8.50;;;;;;;4.32;100.00;100007.69;12200408;19;20007;-82
2022/12/02 13:33:20;;;;;;;19.65;8.73;;;;;;;4.34;100.00;100007.47;12197882;19;20256;-81
2022/12/02 13:37:21;;;;;;;17.67;7.45;;;;;;;4.42;100.00;100001.84;12199880;19;20002;-81
2022/12/02 13:41:23;;;;;;;17.08;8.75;;;;;;;4.45;100.00;100006.88;12205708;19;20055;-81
2022/12/02 13:45:26;;;;;;;19.77;8.15;;;;;;;4.49;100.00;100004.59;12180115;19;20006;-83
2022/12/02 13:49:29;;;;;;;18.83;7.75;;;;;;;4.52;100.00;100010.50;12192850;19;20006;-81
2022/12/02 13:53:30;;;;;;;16.63;7.32;;;;;;;4.59;100.00;100004.22;12197843;19;20066;-81
2022/12/02 13:57:32;;;;;;;16.08;8.00;;;;;;;4.65;100.00;100003.38;12179100;19;20007;-82
2022/12/02 14:01:34;;;;;;;18.13;8.43;;;;;;;4.60;100.00;100006.72;12202734;19;20016;-81
2022/12/02 14:05:35;;;;;;;18.00;8.57;;;;;;;4.59;100.00;100009.66;12198508;19;20002;-83
2022/12/02 14:09:37;;;;;;;20.38;8.70;;;;;;;4.61;100.00;100007.56;12177992;19;20472;-82
2022/12/02 14:13:38;;;;;;;18.75;8.73;;;;;;;4.56;100.00;100017.22;12200429;19;20060;-82
2022/12/02 14:17:40;;;;;;;14.82;8.10;;;;;;;4.48;100.00;100019.28;12198178;19;20372;-82
2022/12/02 14:21:42;;;;;;;20.58;8.20;;;;;;;4.40;100.00;100024.91;12178982;19;20112;-81
2022/12/02 14:25:44;;;;;;;19.20;8.60;;;;;;;4.38;100.00;100024.31;12198757;19;20003;-81
2022/12/02 14:29:45;;;;;;;19.00;9.68;;;;;;;4.35;100.00;100025.53;12185864;19;20040;-82
2022/12/02 14:33:47;;;;;;;22.00;9.45;;;;;;;4.37;100.00;100023.44;12177653;19;20006;-83
2022/12/02 14:38:11;;;;;;;18.85;9.25;;;;;;;4.37;100.00;100023.44;12201158;19;20036;-83
2022/12/02 14:42:13;;;;;;;23.30;10.10;;;;;;;4.26;100.00;100015.88;12206211;19;20003;-83
2022/12/02 14:46:14;;;;;;;24.40;11.35;;;;;;;4.21;100.00;100024.63;12180444;19;20006;-83
2022/12/02 14:50:17;;;;;;;25.27;10.98;;;;;;;4.17;100.00;100023.38;12197079;19;20007;-83
2022/12/02 14:54:22;;;;;;;22.05;10.45;;;;;;;4.22;100.00;100025.47;12201425;19;21269;-82
2022/12/02 14:58:24;;;;;;;20.48;9.18;;;;;;;4.21;100.00;100018.34;12182402;19;20010;-82
2022/12/02 15:02:25;;;;;;;30.10;12.70;;;;;;;4.19;100.00;100025.88;12202162;19;20002;-81
2022/12/02 15:06:31;;;;;;;128.70;42.67;;;;;;;4.15;100.00;100024.63;12181430;19;20028;-83
2022/12/02 15:10:32;;;;;;;79.28;30.65;;;;;;;4.11;100.00;100026.91;12244844;19;20007;-82
2022/12/02 15:14:41;;;;;;;34.63;14.93;;;;;;;4.08;100.00;100024.59;12238531;19;20017;-82
2022/12/02 15:18:43;;;;;;;29.85;12.68;;;;;;;4.04;100.00;100029.59;12187880;19;19999;-82
2022/12/02 15:22:45;;;;;;;21.90;10.10;;;;;;;4.05;100.00;100025.84;12204240;19;20003;-82
2022/12/02 15:26:46;;;;;;;18.65;9.00;;;;;;;4.05;100.00;100035.91;12203800;19;20019;-82
2022/12/02 15:30:56;;;;;;;21.90;9.90;;;;;;;4.07;100.00;100037.34;12183558;19;20396;-82
2022/12/02 15:34:58;;;;;;;19.98;9.25;;;;;;;4.07;100.00;100050.16;12204780;19;20013;-82
2022/12/02 15:39:00;;;;;;;17.02;9.00;;;;;;;4.09;100.00;100038.00;12200717;19;20014;-81
2022/12/02 15:43:01;;;;;;;19.02;10.23;;;;;;;4.05;100.00;100041.38;12177934;19;20015;-82
2022/12/02 15:47:03;;;;;;;17.88;9.63;;;;;;;4.00;100.00;100049.28;12200788;19;21363;-83
2022/12/02 15:51:05;;;;;;;22.35;9.80;;;;;;;3.99;100.00;100051.19;12198648;19;21376;-82
2022/12/02 15:55:07;;;;;;;25.42;10.57;;;;;;;3.99;100.00;100045.72;12184757;19;20508;-82
2022/12/02 15:59:10;;;;;;;24.17;11.20;;;;;;;3.97;100.00;100045.09;12206395;19;20461;-83
2022/12/02 16:03:11;;;;;;;25.02;12.05;;;;;;;3.92;100.00;100058.47;12205738;19;20019;-81
2022/12/02 16:07:14;;;;;;;26.52;12.15;;;;;;;3.90;100.00;100057.84;12182584;19;20002;-82
2022/12/02 16:11:15;;;;;;;14.85;7.47;;;;;;;3.87;100.00;100060.97;12206689;19;20010;-81
2022/12/02 16:15:17;;;;;;;23.70;10.32;;;;;;;3.92;100.00;100058.47;12213860;19;20481;-82
2022/12/02 16:19:19;;;;;;;21.20;10.15;;;;;;;3.89;100.00;100061.59;12187715;19;20010;-83
2022/12/02 16:23:22;;;;;;;22.63;10.17;;;;;;;3.89;100.00;100058.88;12204521;19;20058;-82
2022/12/02 16:27:23;;;;;;;23.63;10.05;;;;;;;3.85;100.00;100063.06;12190491;19;20026;-81
2022/12/02 16:31:25;;;;;;;18.48;9.20;;;;;;;3.79;100.00;100063.84;12203245;19;20010;-81
2022/12/02 16:35:27;;;;;;;18.58;8.98;;;;;;;3.83;100.00;100060.50;12208415;19;20061;-82
2022/12/02 16:39:28;;;;;;;19.73;8.80;;;;;;;3.83;100.00;100060.50;12180493;19;20642;-83
2022/12/02 16:43:30;;;;;;;22.27;10.65;;;;;;;3.70;100.00;100060.44;12201239;19;20083;-82
2022/12/02 16:47:33;;;;;;;19.88;10.38;;;;;;;3.67;100.00;100062.72;12198909;19;20027;-82
2022/12/02 16:51:35;;;;;;;21.38;9.30;;;;;;;3.67;100.00;100069.00;12172553;19;20046;-83
2022/12/02 16:55:36;;;;;;;19.30;8.77;;;;;;;3.63;100.00;100070.47;12201979;19;20006;-82
2022/12/02 16:59:38;;;;;;;20.17;9.77;;;;;;;3.61;100.00;100070.63;12201433;19;20391;-82
2022/12/02 17:03:40;;;;;;;19.58;9.45;;;;;;;3.64;100.00;100078.41;12176618;19;21189;-82
2022/12/02 17:07:41;;;;;;;21.00;9.10;;;;;;;3.70;100.00;100071.34;12202676;19;20010;-82
2022/12/02 17:11:43;;;;;;;21.92;10.18;;;;;;;3.73;100.00;100076.38;12210728;19;20017;-82
2022/12/02 17:15:47;;;;;;;19.17;10.68;;;;;;;3.72;100.00;100071.13;12226132;19;20002;-81
2022/12/02 17:19:49;;;;;;;22.88;10.77;;;;;;;3.69;100.00;100069.66;12254088;19;20007;-82
2022/12/02 17:23:50;;;;;;;22.13;8.90;;;;;;;3.71;100.00;100064.84;12208939;19;20049;-82
2022/12/02 17:27:54;;;;;;;21.92;10.38;;;;;;;3.68;100.00;100069.84;12175589;19;20475;-82
2022/12/02 17:31:56;;;;;;;23.17;11.23;;;;;;;3.56;100.00;100075.84;12196888;19;20349;-83
2022/12/02 17:36:00;;;;;;;29.40;14.38;;;;;;;3.52;100.00;100068.28;12197340;19;20459;-82
2022/12/02 17:40:02;;;;;;;21.73;11.45;;;;;;;3.54;100.00;100072.47;12172631;19;20018;-82
2022/12/02 17:44:04;;;;;;;29.87;11.50;;;;;;;3.54;100.00;100083.38;12197892;19;20162;-82
2022/12/02 17:48:05;;;;;;;19.00;9.20;;;;;;;3.51;100.00;100067.44;12202647;19;20018;-82
2022/12/02 17:52:07;;;;;;;21.70;9.98;;;;;;;3.49;100.00;100083.13;12167115;19;20006;-82
2022/12/02 17:56:24;;;;;;;31.77;12.68;;;;;;;3.50;100.00;100082.06;12195002;19;20003;-81
2022/12/02 18:00:26;;;;;;;22.20;10.10;;;;;;;3.45;100.00;100084.56;12173985;19;20030;-83
2022/12/02 18:04:27;;;;;;;17.67;9.35;;;;;;;3.40;100.00;100087.03;12193329;19;20011;-82
2022/12/02 18:08:29;;;;;;;24.85;11.65;;;;;;;3.39;100.00;100088.91;12193264;19;20036;-82
2022/12/02 18:12:30;;;;;;;20.25;9.55;;;;;;;3.40;100.00;100089.75;12171062;19;20007;-82
2022/12/02 18:16:32;;;;;;;18.10;9.65;;;;;;;3.42;100.00;100087.66;12193464;19;20002;-83
2022/12/02 18:20:34;;;;;;;18.50;8.00;;;;;;;3.46;100.00;100093.56;12191131;19;20014;-82
2022/12/02 18:24:35;;;;;;;16.52;8.05;;;;;;;3.49;100.00;100085.84;12169350;19;20003;-82